Time;durP1;ratioP1;P1;durP2;ratioP2;P2;SDS_P1;SDS_P2;PMS_P1;PMS_P2;Temp;Humidity;BMP_temperature;BMP_pressure;BME280_temperature;BME280_humidity;BME280_pressure;Samples;Min_cycle;Max_cycle;Signal;HPM_P1;HPM_P2
2022/01/14 00:01:43;;;;;;;64.80;26.30;;;-1.90;99.90;;;;;;5060282;28;20461;-80
2022/01/14 00:04:08;;;;;;;67.35;26.95;;;-1.90;99.90;;;;;;5061023;28;20025;-80
2022/01/14 00:06:34;;;;;;;71.22;27.42;;;-1.90;99.90;;;;;;5043227;28;20110;-80
2022/01/14 00:09:06;;;;;;;67.30;26.27;;;-1.90;99.90;;;;;;5061066;28;20055;-81
2022/01/14 00:11:47;;;;;;;70.30;26.83;;;-2.00;99.90;;;;;;5051618;28;20066;-81
2022/01/14 00:16:42;;;;;;;71.75;25.95;;;-2.00;99.90;;;;;;5040387;28;20509;-81
2022/01/14 00:19:08;;;;;;;67.35;26.52;;;-2.10;99.90;;;;;;5040104;28;20032;-80
2022/01/14 00:21:36;;;;;;;60.00;24.13;;;-2.10;99.90;;;;;;5021673;28;20026;-80
2022/01/14 00:24:10;;;;;;;57.50;24.30;;;-2.20;99.90;;;;;;5039495;28;20093;-80
2022/01/14 00:32:54;;;;;;;62.40;23.55;;;-2.40;99.90;;;;;;5059603;28;20032;-80
2022/01/14 00:35:01;;;;;;;54.63;22.30;;;-2.50;99.90;;;;;;5042475;28;20108;-81
2022/01/14 00:37:26;;;;;;;60.35;22.55;;;-2.50;99.90;;;;;;5039853;28;20097;-80
2022/01/14 00:39:52;;;;;;;59.47;22.02;;;-2.50;99.90;;;;;;5039683;28;20044;-81
2022/01/14 00:42:18;;;;;;;59.85;21.75;;;-2.50;99.90;;;;;;5057092;28;20021;-80
2022/01/14 00:44:44;;;;;;;53.25;21.55;;;-2.60;99.90;;;;;;5050161;28;20083;-81
2022/01/14 00:47:09;;;;;;;53.65;20.23;;;-2.60;99.90;;;;;;5039885;28;20026;-80
2022/01/14 00:49:35;;;;;;;53.50;21.38;;;-2.60;99.90;;;;;;5021931;28;20029;-80
2022/01/14 00:52:01;;;;;;;58.22;22.13;;;-2.60;99.90;;;;;;5051189;28;20045;-80
2022/01/14 00:54:27;;;;;;;58.03;22.02;;;-2.60;99.90;;;;;;5048548;28;20402;-79
2022/01/14 00:59:34;;;;;;;53.20;21.05;;;-2.60;99.90;;;;;;5039888;28;20045;-81
2022/01/14 01:02:01;;;;;;;49.65;20.45;;;-2.60;99.90;;;;;;5040191;28;20040;-81
2022/01/14 01:04:32;;;;;;;58.70;21.63;;;-2.60;99.90;;;;;;5031676;28;20070;-82
2022/01/14 01:06:59;;;;;;;59.63;23.58;;;-2.60;99.90;;;;;;5042361;28;20047;-80
2022/01/14 01:09:26;;;;;;;52.50;20.42;;;-2.60;99.90;;;;;;5060303;28;20029;-80
2022/01/14 01:12:25;;;;;;;47.70;19.80;;;-2.60;99.90;;;;;;5046644;28;20025;-80
2022/01/14 01:14:49;;;;;;;49.33;19.77;;;-2.60;99.90;;;;;;5056478;28;20060;-79
2022/01/14 01:17:16;;;;;;;41.13;17.58;;;-2.60;99.90;;;;;;5054439;28;20093;-80
2022/01/14 01:19:42;;;;;;;43.60;16.20;;;-2.50;99.90;;;;;;5034279;28;20085;-79
2022/01/14 01:22:08;;;;;;;36.33;16.25;;;-2.40;99.90;;;;;;5036489;28;20049;-81
2022/01/14 01:24:35;;;;;;;44.13;17.98;;;-2.30;99.90;;;;;;5054003;28;20056;-80
2022/01/14 01:27:07;;;;;;;46.90;19.23;;;-2.30;99.90;;;;;;5051802;28;20033;-80
2022/01/14 01:32:03;;;;;;;42.70;18.88;;;-2.20;99.90;;;;;;5049870;28;20033;-79
2022/01/14 01:34:29;;;;;;;41.95;16.60;;;-2.20;99.90;;;;;;5040449;28;20022;-80
2022/01/14 01:36:57;;;;;;;41.85;17.65;;;-2.10;99.90;;;;;;5041890;28;20376;-80
2022/01/14 01:39:29;;;;;;;44.20;18.55;;;-2.10;99.90;;;;;;5039163;28;20033;-80
2022/01/14 01:41:58;;;;;;;46.63;19.30;;;-2.10;99.90;;;;;;5039100;28;20017;-80
2022/01/14 01:44:25;;;;;;;44.83;19.42;;;-2.10;99.90;;;;;;5039158;28;20068;-79
2022/01/14 01:46:53;;;;;;;49.88;21.08;;;-2.10;99.90;;;;;;5021305;28;20022;-79
2022/01/14 01:49:28;;;;;;;53.38;22.92;;;-2.10;99.90;;;;;;5038727;28;20036;-82
2022/01/14 01:51:57;;;;;;;59.95;23.00;;;-2.20;99.90;;;;;;5038662;28;20413;-81
2022/01/14 01:54:23;;;;;;;55.25;22.77;;;-2.20;99.90;;;;;;5038073;28;20026;-81
2022/01/14 01:56:50;;;;;;;62.35;24.30;;;-2.20;99.90;;;;;;5040220;28;20040;-80
2022/01/14 01:59:17;;;;;;;66.05;23.73;;;-2.20;99.90;;;;;;5039509;28;20018;-81
2022/01/14 02:01:43;;;;;;;54.38;23.17;;;-2.20;99.90;;;;;;5038729;28;20026;-81
2022/01/14 02:04:09;;;;;;;51.78;22.02;;;-2.30;99.90;;;;;;5038693;28;20459;-80
2022/01/14 02:06:38;;;;;;;53.03;22.00;;;-2.30;99.90;;;;;;5038543;28;20049;-80
2022/01/14 02:09:06;;;;;;;53.67;21.77;;;-2.30;99.90;;;;;;5037678;28;20021;-80
2022/01/14 02:11:32;;;;;;;57.15;23.80;;;-2.30;99.90;;;;;;5047279;28;20013;-81
2022/01/14 02:14:00;;;;;;;53.90;21.42;;;-2.40;99.90;;;;;;5043033;28;20452;-80
2022/01/14 02:16:35;;;;;;;56.10;21.45;;;-2.40;99.90;;;;;;5041231;28;20469;-81
2022/01/14 02:19:25;;;;;;;56.10;21.25;;;-2.30;99.90;;;;;;5057406;28;20028;-80
2022/01/14 02:22:11;;;;;;;50.28;19.35;;;-2.40;99.90;;;;;;5039278;28;20021;-81
2022/01/14 02:27:09;;;;;;;57.38;21.48;;;-2.40;99.90;;;;;;5040839;28;20034;-80
2022/01/14 02:29:38;;;;;;;55.45;21.80;;;-2.40;99.90;;;;;;5025075;28;20045;-81
2022/01/14 02:32:05;;;;;;;59.95;22.13;;;-2.40;99.90;;;;;;5035732;28;20017;-79
2022/01/14 02:34:30;;;;;;;56.47;22.58;;;-2.40;99.90;;;;;;5055499;28;20037;-80
2022/01/14 02:36:57;;;;;;;59.03;22.98;;;-2.40;99.90;;;;;;5038001;28;20059;-79
2022/01/14 02:39:22;;;;;;;48.72;21.00;;;-2.40;99.90;;;;;;5044523;28;20029;-81
2022/01/14 02:41:50;;;;;;;47.97;20.33;;;-2.40;99.90;;;;;;5050182;28;20086;-81
2022/01/14 02:44:23;;;;;;;50.13;19.60;;;-2.40;99.90;;;;;;5040724;28;20022;-81
2022/01/14 02:46:56;;;;;;;52.15;20.55;;;-2.40;99.90;;;;;;5041949;28;20021;-81
2022/01/14 02:49:26;;;;;;;52.22;20.25;;;-2.40;99.90;;;;;;5040287;28;20026;-80
2022/01/14 02:51:52;;;;;;;56.85;21.48;;;-2.40;99.90;;;;;;5043539;28;20040;-79
2022/01/14 02:54:22;;;;;;;59.97;23.70;;;-2.30;99.90;;;;;;5042212;28;20030;-80
2022/01/14 02:56:51;;;;;;;57.95;22.65;;;-2.30;99.90;;;;;;5038863;28;20034;-80
2022/01/14 02:59:18;;;;;;;64.50;24.48;;;-2.20;99.90;;;;;;5022304;28;20045;-81
2022/01/14 03:01:46;;;;;;;57.45;23.23;;;-2.20;99.90;;;;;;5038711;28;20025;-80
2022/01/14 03:04:15;;;;;;;63.95;24.92;;;-2.30;99.90;;;;;;5026641;28;20376;-81
2022/01/14 03:06:42;;;;;;;54.33;21.70;;;-2.30;99.90;;;;;;5041303;28;20036;-81
2022/01/14 03:09:08;;;;;;;56.83;22.92;;;-2.30;99.90;;;;;;5057778;28;20047;-81
2022/01/14 03:11:43;;;;;;;58.83;22.20;;;-2.30;99.90;;;;;;5052247;28;20065;-80
2022/01/14 03:14:10;;;;;;;52.13;21.02;;;-2.40;99.90;;;;;;5041481;28;20036;-80
2022/01/14 03:16:41;;;;;;;44.00;18.42;;;-2.30;99.90;;;;;;5055570;28;20088;-81
2022/01/14 03:19:16;;;;;;;47.65;18.67;;;-2.30;99.90;;;;;;5060269;28;20413;-79
2022/01/14 03:21:43;;;;;;;46.40;18.95;;;-2.30;99.90;;;;;;5059285;28;20482;-79
2022/01/14 03:27:03;;;;;;;45.65;19.13;;;-2.20;99.90;;;;;;5040844;28;20056;-81
2022/01/14 03:29:30;;;;;;;47.72;18.42;;;-2.10;99.90;;;;;;5039326;28;20022;-80
2022/01/14 03:31:56;;;;;;;45.22;17.77;;;-2.10;99.90;;;;;;5018686;28;20068;-80
2022/01/14 03:34:22;;;;;;;44.40;18.27;;;-2.00;99.90;;;;;;5039969;28;20547;-80
2022/01/14 03:36:47;;;;;;;42.70;18.00;;;-2.00;99.90;;;;;;5035413;28;20505;-79
2022/01/14 03:39:13;;;;;;;48.45;19.35;;;-2.00;99.90;;;;;;5039899;28;20040;-79
2022/01/14 03:41:39;;;;;;;46.20;20.05;;;-1.90;99.90;;;;;;5049137;28;20021;-80
2022/01/14 03:44:06;;;;;;;42.30;18.92;;;-1.90;99.90;;;;;;5049202;28;20282;-80
2022/01/14 03:46:31;;;;;;;51.97;20.42;;;-1.90;99.90;;;;;;5046301;28;20025;-79
2022/01/14 03:48:57;;;;;;;44.33;18.73;;;-1.90;99.90;;;;;;5044120;28;20036;-81
2022/01/14 03:51:23;;;;;;;52.22;22.13;;;-1.90;99.90;;;;;;5044276;28;20025;-79
2022/01/14 03:53:50;;;;;;;55.78;21.40;;;-1.90;99.90;;;;;;5046412;28;20057;-78
2022/01/14 03:56:16;;;;;;;48.40;19.75;;;-2.00;99.90;;;;;;5023290;28;20036;-79
2022/01/14 03:58:43;;;;;;;52.28;20.98;;;-2.00;99.90;;;;;;5043808;28;20033;-80
2022/01/14 04:01:10;;;;;;;43.05;19.15;;;-2.00;99.90;;;;;;5045250;28;20033;-80
2022/01/14 04:03:36;;;;;;;46.97;20.23;;;-2.00;99.90;;;;;;5027239;28;20405;-80
2022/01/14 04:06:02;;;;;;;47.42;19.23;;;-2.00;99.90;;;;;;5041820;28;20038;-81
2022/01/14 04:08:28;;;;;;;51.25;20.92;;;-2.00;99.90;;;;;;5045128;28;20036;-79
2022/01/14 04:10:56;;;;;;;45.83;18.48;;;-2.00;99.90;;;;;;5065560;28;20029;-80
2022/01/14 04:13:34;;;;;;;53.92;21.60;;;-2.00;99.90;;;;;;5056699;28;20062;-81
2022/01/14 04:16:00;;;;;;;44.70;19.92;;;-2.00;99.90;;;;;;5035065;28;20032;-80
2022/01/14 04:18:26;;;;;;;52.03;21.33;;;-2.00;99.90;;;;;;5064079;28;20094;-81
2022/01/14 04:20:52;;;;;;;46.13;20.90;;;-2.10;99.90;;;;;;5042452;28;20021;-79
2022/01/14 04:23:21;;;;;;;48.38;21.33;;;-2.10;99.90;;;;;;5048481;28;20032;-79
2022/01/14 04:25:53;;;;;;;51.85;20.83;;;-2.10;99.90;;;;;;5046161;28;20395;-79
2022/01/14 04:28:32;;;;;;;46.40;19.40;;;-2.10;99.90;;;;;;5048890;28;20090;-81
2022/01/14 04:30:59;;;;;;;48.17;20.17;;;-2.20;99.90;;;;;;5057392;28;20089;-80
2022/01/14 04:33:28;;;;;;;54.40;22.65;;;-2.10;99.90;;;;;;5049766;28;20032;-79
2022/01/14 04:35:54;;;;;;;51.72;22.70;;;-2.20;99.90;;;;;;5030177;28;20056;-80
2022/01/14 04:38:23;;;;;;;49.10;20.48;;;-2.20;99.90;;;;;;5045732;28;20034;-82
2022/01/14 04:41:12;;;;;;;53.95;21.85;;;-2.30;99.90;;;;;;5052414;28;20044;-81
2022/01/14 04:43:38;;;;;;;50.95;20.75;;;-2.30;99.90;;;;;;5035402;28;20034;-79
2022/01/14 04:48:33;;;;;;;40.65;18.75;;;-2.40;99.90;;;;;;5070663;28;20009;-80
2022/01/14 04:51:00;;;;;;;45.17;18.67;;;-2.40;99.90;;;;;;5064277;28;20025;-80
2022/01/14 04:53:27;;;;;;;41.95;18.27;;;-2.40;99.90;;;;;;5045811;28;20025;-80
2022/01/14 04:55:55;;;;;;;39.70;18.98;;;-2.30;99.90;;;;;;5060834;28;20047;-80
2022/01/14 04:58:25;;;;;;;38.65;17.10;;;-2.30;99.90;;;;;;5058430;28;20021;-80
2022/01/14 05:00:51;;;;;;;41.90;16.15;;;-2.30;99.90;;;;;;5024061;28;20022;-80
2022/01/14 05:03:17;;;;;;;39.65;16.25;;;-2.20;99.90;;;;;;5025680;28;20528;-82
2022/01/14 05:05:46;;;;;;;35.20;15.85;;;-2.20;99.90;;;;;;5039039;28;20037;-81
2022/01/14 05:08:19;;;;;;;38.80;16.10;;;-2.10;99.90;;;;;;5041828;28;20049;-81
2022/01/14 05:13:24;;;;;;;30.83;14.68;;;-2.10;99.90;;;;;;5057132;28;20087;-81
2022/01/14 05:15:50;;;;;;;37.38;15.38;;;-2.00;99.90;;;;;;5055507;28;20017;-81
2022/01/14 05:18:16;;;;;;;29.33;13.32;;;-1.90;99.90;;;;;;5038107;28;20113;-83
2022/01/14 05:20:42;;;;;;;36.70;16.08;;;-1.90;99.90;;;;;;5043113;28;20030;-80
2022/01/14 05:23:08;;;;;;;34.50;15.02;;;-1.80;99.90;;;;;;5072450;23;20037;-78
2022/01/14 05:25:34;;;;;;;33.38;15.05;;;-1.80;99.90;;;;;;5061715;28;20036;-78
2022/01/14 05:27:59;;;;;;;33.95;15.75;;;-1.80;99.90;;;;;;5076288;28;20055;-78
2022/01/14 05:30:26;;;;;;;50.50;20.25;;;-1.70;99.90;;;;;;5084088;28;20076;-77
2022/01/14 05:32:53;;;;;;;43.90;20.58;;;-1.70;99.90;;;;;;5069923;28;20349;-78
2022/01/14 05:35:25;;;;;;;42.05;19.65;;;-1.70;99.90;;;;;;5089743;28;20036;-78
2022/01/14 05:37:51;;;;;;;41.35;17.63;;;-1.60;99.90;;;;;;5089083;28;20021;-78
2022/01/14 05:40:19;;;;;;;45.88;18.85;;;-1.60;99.90;;;;;;5087265;28;20055;-77
2022/01/14 05:42:45;;;;;;;36.25;17.63;;;-1.60;99.90;;;;;;5089935;28;20048;-77
2022/01/14 05:45:13;;;;;;;34.83;17.25;;;-1.50;99.90;;;;;;5070570;28;20035;-78
2022/01/14 05:47:39;;;;;;;36.67;16.98;;;-1.50;99.90;;;;;;5087337;28;20032;-78
2022/01/14 05:50:08;;;;;;;34.38;15.63;;;-1.50;99.90;;;;;;5091042;28;20020;-76
2022/01/14 05:52:34;;;;;;;32.53;15.68;;;-1.60;99.90;;;;;;5070060;28;20024;-78
2022/01/14 05:55:01;;;;;;;42.22;17.70;;;-1.50;99.90;;;;;;5085738;28;20404;-77
2022/01/14 05:57:27;;;;;;;37.72;17.05;;;-1.60;99.90;;;;;;5085358;28;20012;-78
2022/01/14 05:59:53;;;;;;;35.95;16.52;;;-1.60;99.90;;;;;;5085158;28;20032;-78
2022/01/14 06:02:19;;;;;;;40.85;17.85;;;-1.60;99.90;;;;;;5086178;28;20576;-79
2022/01/14 06:04:45;;;;;;;50.95;21.85;;;-1.60;99.90;;;;;;5067602;28;20025;-78
2022/01/14 06:07:11;;;;;;;56.08;22.75;;;-1.70;99.90;;;;;;5085942;28;20020;-77
2022/01/14 06:09:38;;;;;;;56.22;23.55;;;-1.70;99.90;;;;;;5068946;28;20040;-77
2022/01/14 06:12:04;;;;;;;52.00;22.27;;;-1.80;99.90;;;;;;5063461;28;20090;-77
2022/01/14 06:14:30;;;;;;;54.97;22.45;;;-1.90;99.90;;;;;;5079645;28;20050;-78
2022/01/14 06:16:56;;;;;;;54.83;22.58;;;-2.00;99.90;;;;;;5085383;28;20111;-78
2022/01/14 06:19:23;;;;;;;52.47;20.52;;;-2.10;99.90;;;;;;5068269;28;20025;-79
2022/01/14 06:21:49;;;;;;;45.83;19.45;;;-2.20;99.90;;;;;;5072530;28;20028;-77
2022/01/14 06:24:15;;;;;;;51.45;20.25;;;-2.20;99.90;;;;;;5092116;28;20033;-78
2022/01/14 06:26:40;;;;;;;43.53;19.45;;;-2.20;99.90;;;;;;5068027;28;20040;-77
2022/01/14 06:29:06;;;;;;;46.15;19.30;;;-2.20;99.90;;;;;;5082405;28;20081;-78
2022/01/14 06:31:32;;;;;;;48.60;18.73;;;-2.20;99.90;;;;;;5061693;28;20051;-78
2022/01/14 06:33:58;;;;;;;48.33;18.92;;;-2.20;99.90;;;;;;5062101;28;20025;-78
2022/01/14 06:36:23;;;;;;;45.50;18.42;;;-2.10;99.90;;;;;;5062012;28;20084;-78
2022/01/14 06:38:49;;;;;;;45.42;19.77;;;-2.10;99.90;;;;;;5043011;28;20485;-77
2022/01/14 06:41:15;;;;;;;38.25;17.42;;;-2.00;99.90;;;;;;5062342;28;20063;-78
2022/01/14 06:43:41;;;;;;;41.47;17.00;;;-1.90;99.90;;;;;;5080687;28;20024;-79
2022/01/14 06:46:07;;;;;;;39.90;16.70;;;-1.90;99.90;;;;;;5081485;28;20039;-76
2022/01/14 06:48:34;;;;;;;31.15;13.85;;;-1.90;99.90;;;;;;5082208;28;20025;-77
2022/01/14 06:50:59;;;;;;;33.28;14.52;;;-1.80;99.90;;;;;;5063982;28;20113;-78
2022/01/14 06:53:25;;;;;;;34.75;14.85;;;-1.80;99.90;;;;;;5079501;28;20032;-77
2022/01/14 06:55:51;;;;;;;33.20;14.40;;;-1.70;99.90;;;;;;5079854;28;20032;-78
2022/01/14 06:58:17;;;;;;;27.52;12.60;;;-1.60;99.90;;;;;;5079468;28;20025;-78
2022/01/14 07:00:42;;;;;;;35.67;14.73;;;-1.60;99.90;;;;;;5080844;28;20021;-79
2022/01/14 07:03:08;;;;;;;33.97;14.65;;;-1.50;99.90;;;;;;5083602;28;20024;-77
2022/01/14 07:05:34;;;;;;;36.08;15.48;;;-1.40;99.90;;;;;;5064038;28;20096;-77
2022/01/14 07:07:59;;;;;;;37.80;16.13;;;-1.40;99.90;;;;;;5061821;28;20535;-77
2022/01/14 07:10:25;;;;;;;37.80;15.82;;;-1.40;99.90;;;;;;5080656;28;20024;-78
2022/01/14 07:12:51;;;;;;;33.83;16.15;;;-1.30;99.90;;;;;;5083232;28;20050;-79
2022/01/14 07:15:17;;;;;;;33.95;14.80;;;-1.30;99.90;;;;;;5086568;28;20021;-78
2022/01/14 07:17:44;;;;;;;28.20;13.80;;;-1.30;99.90;;;;;;5069077;28;20031;-78
2022/01/14 07:20:13;;;;;;;31.95;13.50;;;-1.20;99.90;;;;;;5089095;28;20028;-78
2022/01/14 07:22:44;;;;;;;28.55;13.85;;;-1.20;99.90;;;;;;5092327;28;20047;-77
2022/01/14 07:25:10;;;;;;;28.48;14.07;;;-1.10;99.90;;;;;;5068546;28;20028;-78
2022/01/14 07:27:37;;;;;;;29.23;13.85;;;-1.10;99.90;;;;;;5086411;28;20025;-77
2022/01/14 07:30:07;;;;;;;25.95;12.18;;;-1.00;99.90;;;;;;5086265;28;20020;-78
2022/01/14 07:32:33;;;;;;;27.83;13.60;;;-0.90;99.90;;;;;;5082423;28;20134;-77
2022/01/14 07:34:59;;;;;;;25.52;13.13;;;-0.90;99.90;;;;;;5082938;28;20050;-79
2022/01/14 07:37:25;;;;;;;21.33;11.50;;;-0.80;99.90;;;;;;5083365;28;20021;-79
2022/01/14 07:39:51;;;;;;;22.63;11.70;;;-0.70;99.90;;;;;;5066315;28;20028;-78
2022/01/14 07:42:17;;;;;;;23.25;10.90;;;-0.70;99.90;;;;;;5066116;28;20025;-77
2022/01/14 07:44:43;;;;;;;21.45;10.65;;;-0.60;99.90;;;;;;5058563;28;20092;-78
2022/01/14 07:47:08;;;;;;;22.85;10.50;;;-0.40;99.90;;;;;;5075556;28;20020;-78
2022/01/14 07:49:35;;;;;;;18.05;9.90;;;-0.30;99.90;;;;;;5079905;28;20051;-78
2022/01/14 07:52:00;;;;;;;23.38;11.57;;;-0.20;99.90;;;;;;5061528;28;20074;-78
2022/01/14 07:54:26;;;;;;;23.42;11.15;;;-0.30;99.90;;;;;;5079658;28;20024;-78
2022/01/14 07:56:53;;;;;;;21.38;10.65;;;-0.30;99.90;;;;;;5081063;28;20036;-78
2022/01/14 07:59:22;;;;;;;19.92;10.40;;;-0.30;99.90;;;;;;5078658;28;20031;-78
2022/01/14 08:01:51;;;;;;;22.27;10.65;;;-0.30;99.90;;;;;;5062832;28;20094;-78
2022/01/14 08:04:18;;;;;;;26.60;12.38;;;-0.20;99.90;;;;;;5066776;28;20024;-79
2022/01/14 08:06:47;;;;;;;32.72;14.38;;;-0.20;99.90;;;;;;5085364;28;20037;-79
2022/01/14 08:09:14;;;;;;;25.10;13.10;;;-0.20;99.90;;;;;;5066559;28;20437;-78
2022/01/14 08:11:41;;;;;;;29.77;12.70;;;-0.10;99.90;;;;;;5064791;28;20040;-76
2022/01/14 08:14:07;;;;;;;27.73;11.93;;;-0.10;99.90;;;;;;5083686;28;20027;-78
2022/01/14 08:16:32;;;;;;;22.98;12.07;;;0.00;99.90;;;;;;5063804;28;20028;-77
2022/01/14 08:18:58;;;;;;;21.60;11.13;;;0.00;99.90;;;;;;5079631;28;20025;-79
2022/01/14 08:21:24;;;;;;;23.55;11.52;;;0.10;99.90;;;;;;5079717;28;20461;-78
2022/01/14 08:23:50;;;;;;;23.20;11.80;;;0.20;99.90;;;;;;5083844;28;20036;-78
2022/01/14 08:26:16;;;;;;;26.30;11.70;;;0.30;99.90;;;;;;5065151;28;20028;-77
2022/01/14 08:28:42;;;;;;;21.27;10.40;;;0.50;99.90;;;;;;5084377;28;20111;-77
2022/01/14 08:31:07;;;;;;;17.60;9.27;;;0.60;99.90;;;;;;5070589;28;20445;-76
2022/01/14 08:33:33;;;;;;;15.35;8.82;;;0.70;99.90;;;;;;5068361;28;20031;-78
2022/01/14 08:36:03;;;;;;;21.20;9.60;;;0.80;99.90;;;;;;5070080;28;20028;-79
2022/01/14 08:38:28;;;;;;;15.85;8.85;;;0.80;99.90;;;;;;5077036;28;20100;-79
2022/01/14 08:40:55;;;;;;;15.68;8.18;;;1.00;99.90;;;;;;5070474;28;20028;-78
2022/01/14 08:43:21;;;;;;;18.95;8.93;;;1.00;99.70;;;;;;5081957;28;20025;-79
2022/01/14 08:45:47;;;;;;;18.45;9.55;;;1.10;99.00;;;;;;5062132;28;20167;-77
2022/01/14 08:48:13;;;;;;;16.02;8.65;;;1.30;98.50;;;;;;5064274;28;20123;-79
2022/01/14 08:50:39;;;;;;;16.13;9.10;;;1.30;97.90;;;;;;5059232;28;20035;-78
2022/01/14 08:53:08;;;;;;;15.63;8.35;;;1.40;97.60;;;;;;5059411;28;20032;-79
2022/01/14 08:55:35;;;;;;;12.52;7.60;;;1.50;97.40;;;;;;5081597;28;20024;-79
2022/01/14 08:58:03;;;;;;;14.70;8.57;;;1.60;97.00;;;;;;5082169;28;20051;-79
2022/01/14 09:00:29;;;;;;;14.35;8.15;;;1.70;96.70;;;;;;5080546;28;20017;-80
2022/01/14 09:02:56;;;;;;;17.20;9.07;;;1.90;96.30;;;;;;5079175;28;20412;-80
2022/01/14 09:05:24;;;;;;;16.48;8.40;;;2.00;95.70;;;;;;5079492;28;20429;-78
2022/01/14 09:07:51;;;;;;;15.40;8.40;;;2.10;95.30;;;;;;5085772;28;20144;-80
2022/01/14 09:10:18;;;;;;;14.15;8.00;;;2.20;94.90;;;;;;5066840;28;20430;-79
2022/01/14 09:12:44;;;;;;;16.52;8.75;;;2.40;94.50;;;;;;5065745;28;20028;-78
2022/01/14 09:15:11;;;;;;;11.60;7.03;;;2.50;94.20;;;;;;5074846;28;20035;-78
2022/01/14 09:17:37;;;;;;;13.93;7.05;;;2.70;93.90;;;;;;5085346;28;20163;-81
2022/01/14 09:20:05;;;;;;;9.50;6.32;;;2.80;93.50;;;;;;5063285;28;20028;-79
2022/01/14 09:22:32;;;;;;;12.52;6.88;;;3.00;93.20;;;;;;5063551;28;20032;-77
2022/01/14 09:24:59;;;;;;;13.88;7.63;;;3.10;92.70;;;;;;5061274;28;20047;-78
2022/01/14 09:27:27;;;;;;;12.95;7.57;;;3.30;91.90;;;;;;5062706;28;20051;-79
2022/01/14 09:29:54;;;;;;;11.77;6.57;;;3.40;91.50;;;;;;5062868;28;20137;-79
2022/01/14 09:32:20;;;;;;;15.25;7.53;;;3.60;91.10;;;;;;5080655;28;20055;-78
2022/01/14 09:34:46;;;;;;;12.07;7.30;;;3.70;90.90;;;;;;5080442;28;20033;-78
2022/01/14 09:37:12;;;;;;;14.50;8.50;;;3.90;90.60;;;;;;5061599;28;20388;-80
2022/01/14 09:39:43;;;;;;;16.27;8.20;;;4.10;90.10;;;;;;5077396;28;20033;-77
2022/01/14 09:42:09;;;;;;;13.25;7.43;;;4.20;88.60;;;;;;5058618;28;20456;-79
2022/01/14 09:44:35;;;;;;;14.43;8.35;;;4.30;87.10;;;;;;5056913;28;20041;-79
2022/01/14 09:47:02;;;;;;;13.70;7.22;;;4.40;84.20;;;;;;5053757;28;20021;-77
2022/01/14 09:49:28;;;;;;;14.60;7.18;;;4.40;82.70;;;;;;5076446;28;20120;-78
2022/01/14 09:51:54;;;;;;;15.80;7.95;;;4.50;82.20;;;;;;5077821;28;20054;-79
2022/01/14 09:54:20;;;;;;;12.73;8.05;;;4.50;81.90;;;;;;5059513;28;20572;-79
2022/01/14 09:56:47;;;;;;;14.40;7.00;;;4.60;80.80;;;;;;5079639;28;20052;-79
2022/01/14 09:59:13;;;;;;;17.67;7.82;;;4.60;80.90;;;;;;5058817;28;20024;-78
2022/01/14 10:01:41;;;;;;;11.13;7.03;;;4.60;80.50;;;;;;5079207;28;20035;-78
2022/01/14 10:04:12;;;;;;;13.57;6.55;;;4.60;80.50;;;;;;5078327;28;20027;-79
2022/01/14 10:06:51;;;;;;;15.10;7.32;;;4.70;80.60;;;;;;5062011;28;20029;-79
2022/01/14 10:09:24;;;;;;;10.82;6.60;;;4.80;80.20;;;;;;5074269;28;20385;-78
2022/01/14 10:12:18;;;;;;;9.38;6.13;;;4.90;79.80;;;;;;5076556;28;20021;-77
2022/01/14 10:14:55;;;;;;;13.43;7.35;;;5.10;79.80;;;;;;5055499;28;20037;-79
2022/01/14 10:17:21;;;;;;;11.13;6.93;;;5.20;78.30;;;;;;5057095;28;20039;-80
2022/01/14 10:19:48;;;;;;;11.95;6.88;;;5.20;77.40;;;;;;5076272;28;20056;-76
2022/01/14 10:22:28;;;;;;;14.05;7.57;;;5.20;77.40;;;;;;5077438;28;20032;-78
2022/01/14 10:25:07;;;;;;;11.93;6.70;;;5.30;77.60;;;;;;5079337;28;20040;-78
2022/01/14 10:27:39;;;;;;;11.07;6.07;;;5.30;78.00;;;;;;5059046;28;20092;-78
2022/01/14 10:30:18;;;;;;;10.48;6.22;;;5.30;78.00;;;;;;5059306;28;20030;-76
2022/01/14 10:32:45;;;;;;;11.68;6.15;;;5.40;77.90;;;;;;5059927;28;20385;-77
2022/01/14 10:35:15;;;;;;;11.57;7.05;;;5.50;77.30;;;;;;5060135;28;20542;-78
2022/01/14 10:37:41;;;;;;;11.63;6.20;;;5.50;76.90;;;;;;5061072;28;20392;-78
2022/01/14 10:40:19;;;;;;;11.35;6.32;;;5.60;76.50;;;;;;5078715;28;20382;-78
2022/01/14 10:42:47;;;;;;;10.63;6.53;;;5.70;75.30;;;;;;5078803;28;20043;-79
2022/01/14 10:45:22;;;;;;;10.90;6.18;;;5.80;75.50;;;;;;5081607;28;20025;-78
2022/01/14 10:47:53;;;;;;;15.68;6.90;;;5.90;75.30;;;;;;5058624;28;20025;-78
2022/01/14 10:50:26;;;;;;;10.77;5.75;;;6.00;75.10;;;;;;5063527;28;20607;-79
2022/01/14 10:52:52;;;;;;;10.02;6.07;;;6.00;74.60;;;;;;5061659;28;20048;-77
2022/01/14 10:55:28;;;;;;;10.68;6.43;;;6.00;74.30;;;;;;5056792;28;20077;-78
2022/01/14 10:57:54;;;;;;;10.88;6.57;;;6.00;74.20;;;;;;5074412;28;20020;-78
2022/01/14 11:00:21;;;;;;;10.95;7.40;;;6.10;73.40;;;;;;5069066;28;20107;-78
2022/01/14 11:02:52;;;;;;;11.90;6.40;;;6.10;72.50;;;;;;5079719;28;20036;-78
2022/01/14 11:05:20;;;;;;;13.30;6.75;;;6.10;72.50;;;;;;5060556;28;20056;-78
2022/01/14 11:07:48;;;;;;;11.18;6.55;;;6.20;72.10;;;;;;5075707;28;20026;-78
2022/01/14 11:10:17;;;;;;;13.07;6.80;;;6.20;71.20;;;;;;5053108;28;20033;-78
2022/01/14 11:12:43;;;;;;;12.05;7.10;;;6.20;71.40;;;;;;5055567;28;20025;-77
2022/01/14 11:15:10;;;;;;;14.20;6.93;;;6.20;71.50;;;;;;5041337;28;20029;-78
2022/01/14 11:17:37;;;;;;;10.30;5.90;;;6.20;71.00;;;;;;5067594;28;20020;-79
2022/01/14 11:20:06;;;;;;;10.77;6.10;;;6.20;71.10;;;;;;5053139;28;20477;-77
2022/01/14 11:25:16;;;;;;;11.10;7.05;;;6.20;70.90;;;;;;5055343;28;20036;-79
2022/01/14 11:27:52;;;;;;;12.50;6.85;;;6.30;71.30;;;;;;5055177;28;20025;-78
2022/01/14 11:30:20;;;;;;;10.43;6.70;;;6.30;71.20;;;;;;5058150;28;20461;-77
2022/01/14 11:33:02;;;;;;;11.30;6.22;;;6.40;70.70;;;;;;5057755;28;20492;-78
2022/01/14 11:35:28;;;;;;;13.13;6.70;;;6.40;70.60;;;;;;5076959;28;20024;-79
2022/01/14 11:37:54;;;;;;;8.82;5.55;;;6.30;71.10;;;;;;5077915;28;20469;-77
2022/01/14 11:40:20;;;;;;;9.77;6.20;;;6.30;71.60;;;;;;5083849;28;20017;-77
2022/01/14 11:42:46;;;;;;;12.02;7.03;;;6.30;71.90;;;;;;5078503;28;20449;-77
2022/01/14 11:45:17;;;;;;;10.48;5.43;;;6.30;71.40;;;;;;5078177;28;20025;-78
2022/01/14 11:47:45;;;;;;;9.23;5.95;;;6.40;71.30;;;;;;5078889;28;20081;-78
2022/01/14 11:50:28;;;;;;;9.95;6.30;;;6.30;71.10;;;;;;5080043;28;20043;-77
2022/01/14 11:52:54;;;;;;;8.93;5.72;;;6.40;71.00;;;;;;5065050;28;20466;-78
2022/01/14 11:55:22;;;;;;;9.38;5.45;;;6.40;70.10;;;;;;5083820;28;20032;-79
2022/01/14 11:57:49;;;;;;;7.43;5.43;;;6.50;70.30;;;;;;5088703;28;20103;-77
2022/01/14 12:00:27;;;;;;;7.50;5.32;;;6.50;69.90;;;;;;5088572;28;20606;-78
2022/01/14 12:03:11;;;;;;;12.80;5.70;;;6.60;68.80;;;;;;5070964;28;20020;-78
2022/01/14 12:05:59;;;;;;;8.38;5.25;;;6.60;68.80;;;;;;5069676;28;20024;-78
2022/01/14 12:08:32;;;;;;;10.27;5.50;;;6.60;69.00;;;;;;5082833;28;20021;-77
2022/01/14 12:11:05;;;;;;;12.20;6.13;;;6.70;69.20;;;;;;5067796;28;20025;-79
2022/01/14 12:18:57;;;;;;;15.50;6.65;;;6.90;69.10;;;;;;5069297;28;20055;-78
2022/01/14 12:21:39;;;;;;;10.32;6.20;;;7.00;69.20;;;;;;5081627;28;20394;-79
2022/01/14 12:24:19;;;;;;;9.35;5.03;;;7.10;69.10;;;;;;5079158;28;20029;-77
2022/01/14 12:27:08;;;;;;;13.77;5.82;;;7.20;68.70;;;;;;5078816;28;20024;-78
2022/01/14 12:29:38;;;;;;;10.68;5.22;;;7.30;67.70;;;;;;5063432;28;20444;-79
2022/01/14 12:32:05;;;;;;;10.00;5.63;;;7.30;67.20;;;;;;5080405;28;20032;-78
2022/01/14 12:34:31;;;;;;;8.50;4.45;;;7.40;66.90;;;;;;5080632;28;20020;-78
2022/01/14 12:36:57;;;;;;;9.23;4.70;;;7.50;66.60;;;;;;5078406;28;20021;-78
2022/01/14 12:39:23;;;;;;;6.72;4.30;;;7.60;66.00;;;;;;5079107;28;20127;-78
2022/01/14 12:41:57;;;;;;;7.07;4.60;;;7.70;65.60;;;;;;5061581;28;20040;-78
2022/01/14 12:44:24;;;;;;;13.43;4.60;;;7.70;65.20;;;;;;5061117;28;20046;-78
2022/01/14 12:47:09;;;;;;;7.45;4.18;;;7.80;65.00;;;;;;5060493;28;20431;-77
2022/01/14 12:49:37;;;;;;;8.77;4.28;;;7.90;64.60;;;;;;5060437;28;20035;-78
2022/01/14 12:52:07;;;;;;;7.80;4.70;;;7.90;64.40;;;;;;5061895;28;20366;-77
2022/01/14 12:54:37;;;;;;;6.70;4.70;;;7.90;64.30;;;;;;5079200;28;20024;-78
2022/01/14 12:57:04;;;;;;;10.38;4.80;;;8.00;64.60;;;;;;5078726;28;20024;-78
2022/01/14 12:59:39;;;;;;;14.18;5.03;;;8.10;64.80;;;;;;5080266;28;20039;-79
2022/01/14 13:02:05;;;;;;;7.60;4.20;;;8.20;64.60;;;;;;5040800;28;20025;-78
2022/01/14 13:04:32;;;;;;;10.18;4.97;;;8.20;64.70;;;;;;5040037;28;20028;-79
2022/01/14 13:07:03;;;;;;;7.13;4.15;;;8.40;64.80;;;;;;5059595;28;20021;-78
2022/01/14 13:09:35;;;;;;;6.03;3.90;;;8.40;65.10;;;;;;5064188;28;20588;-78
2022/01/14 13:12:05;;;;;;;7.83;4.30;;;8.40;65.30;;;;;;5078254;28;20029;-79
2022/01/14 13:14:40;;;;;;;8.43;4.47;;;8.50;65.60;;;;;;5059400;28;20098;-79